Time;durP1;ratioP1;P1;durP2;ratioP2;P2;SDS_P1;SDS_P2;PMS_P1;PMS_P2;Temp;Humidity;BMP_temperature;BMP_pressure;BME280_temperature;BME280_humidity;BME280_pressure;Samples;Min_cycle;Max_cycle;Signal;HPM_P1;HPM_P2
2023/05/11 00:03:37;;;;;;;46.63;21.83;;;;;;;10.95;100.00;101464.38;10322507;28;20030;-73
2023/05/11 00:08:38;;;;;;;47.85;21.60;;;;;;;10.91;100.00;101447.47;10354684;28;20048;-76
2023/05/11 00:13:38;;;;;;;39.08;20.50;;;;;;;10.92;100.00;101443.66;10383290;28;20045;-73
2023/05/11 00:18:39;;;;;;;41.67;20.17;;;;;;;10.80;100.00;101451.09;10378855;28;20049;-73
2023/05/11 00:23:40;;;;;;;41.25;19.33;;;;;;;11.05;100.00;101448.88;10376890;28;20075;-73
2023/05/11 00:28:40;;;;;;;41.38;18.88;;;;;;;11.13;100.00;101449.59;10394865;28;20037;-73
2023/05/11 00:33:41;;;;;;;36.92;18.00;;;;;;;11.08;100.00;101459.44;10412440;28;20046;-73
2023/05/11 00:38:42;;;;;;;38.80;19.30;;;;;;;10.91;100.00;101453.00;10394159;28;20037;-74
2023/05/11 00:43:42;;;;;;;40.90;18.58;;;;;;;10.97;100.00;101456.69;10410112;28;20044;-73
2023/05/11 00:48:43;;;;;;;38.85;18.70;;;;;;;11.00;100.00;101446.03;10408894;28;20084;-73
2023/05/11 00:53:43;;;;;;;41.97;18.75;;;;;;;10.93;100.00;101445.31;10393422;28;20091;-73
2023/05/11 00:58:44;;;;;;;38.75;18.60;;;;;;;10.91;100.00;101436.47;10361744;28;20033;-74
2023/05/11 01:03:45;;;;;;;43.22;20.50;;;;;;;10.92;100.00;101440.91;10394639;28;20045;-74
2023/05/11 01:08:46;;;;;;;40.92;19.77;;;;;;;10.89;100.00;101441.38;10368195;28;20042;-73
2023/05/11 01:14:10;;;;;;;42.72;20.75;;;;;;;10.86;100.00;101442.72;10369761;28;20083;-72
2023/05/11 01:19:14;;;;;;;41.47;20.42;;;;;;;10.83;100.00;101450.59;10387216;28;20045;-71
2023/05/11 01:24:57;;;;;;;41.08;20.25;;;;;;;10.77;100.00;101457.09;10401442;28;20079;-73
2023/05/11 01:30:35;;;;;;;42.92;20.98;;;;;;;10.87;100.00;101451.81;10383938;28;20068;-73
2023/05/11 01:35:38;;;;;;;51.47;22.17;;;;;;;10.87;100.00;101454.56;10401152;28;20155;-74
2023/05/11 01:40:38;;;;;;;45.65;20.17;;;;;;;10.92;100.00;101454.69;10385117;28;20036;-73
2023/05/11 01:45:41;;;;;;;45.33;18.90;;;;;;;10.85;100.00;101456.72;10358528;28;20038;-73
2023/05/11 01:50:41;;;;;;;48.83;21.30;;;;;;;10.75;100.00;101460.09;10344349;28;20038;-73
2023/05/11 01:55:42;;;;;;;42.17;20.20;;;;;;;10.66;100.00;101456.03;10327642;28;20549;-73
2023/05/11 02:00:43;;;;;;;51.35;20.13;;;;;;;10.67;100.00;101461.31;10327576;28;20034;-73
2023/05/11 02:05:44;;;;;;;48.25;21.27;;;;;;;10.67;100.00;101457.72;10401673;28;20038;-74
2023/05/11 02:10:44;;;;;;;49.35;21.90;;;;;;;10.63;100.00;101467.53;10399259;28;20037;-73
2023/05/11 02:15:45;;;;;;;61.65;21.73;;;;;;;10.62;100.00;101472.19;10367470;28;20037;-75
2023/05/11 02:20:46;;;;;;;42.78;19.48;;;;;;;10.63;100.00;101479.38;10383791;28;20034;-75
2023/05/11 02:25:46;;;;;;;32.85;16.15;;;;;;;10.65;100.00;101488.25;10381073;28;20537;-75
2023/05/11 02:30:49;;;;;;;39.05;16.88;;;;;;;10.61;100.00;101465.00;10381424;28;20077;-76
2023/05/11 02:35:49;;;;;;;28.83;14.57;;;;;;;10.67;100.00;101486.09;10349679;28;20060;-74
2023/05/11 02:40:50;;;;;;;34.63;16.92;;;;;;;10.71;100.00;101486.44;10381039;28;20037;-74
2023/05/11 02:45:52;;;;;;;32.15;14.90;;;;;;;10.64;100.00;101492.06;10366910;28;20053;-69
2023/05/11 02:50:54;;;;;;;33.95;15.82;;;;;;;10.62;100.00;101488.69;10382800;28;20049;-74
2023/05/11 02:55:54;;;;;;;34.22;16.05;;;;;;;10.59;100.00;101482.84;10381859;28;20053;-73
2023/05/11 03:00:55;;;;;;;35.85;18.05;;;;;;;10.71;100.00;101491.97;10365409;28;21089;-73
2023/05/11 03:05:55;;;;;;;36.47;17.63;;;;;;;10.73;100.00;101488.94;10413601;28;20045;-74
2023/05/11 03:10:56;;;;;;;35.72;16.27;;;;;;;10.61;100.00;101473.28;10381778;28;20033;-74
2023/05/11 03:15:57;;;;;;;55.03;18.15;;;;;;;10.60;100.00;101474.34;10366245;28;20106;-75
2023/05/11 03:20:58;;;;;;;48.13;17.98;;;;;;;10.53;100.00;101473.63;10380470;28;20053;-74
2023/05/11 03:25:58;;;;;;;44.50;18.83;;;;;;;10.59;100.00;101491.94;10364220;28;20038;-74
2023/05/11 03:30:59;;;;;;;45.20;16.00;;;;;;;10.63;100.00;101490.41;10380327;28;20517;-74
2023/05/11 03:35:59;;;;;;;36.78;15.95;;;;;;;10.60;100.00;101479.00;10356863;28;20045;-75
2023/05/11 03:41:00;;;;;;;37.95;16.02;;;;;;;10.62;100.00;101477.69;10355857;28;20034;-74
2023/05/11 03:46:00;;;;;;;39.30;16.67;;;;;;;10.66;100.00;101480.81;10324487;28;20080;-72
2023/05/11 03:51:02;;;;;;;40.88;16.10;;;;;;;10.52;100.00;101449.09;10356321;28;21607;-74
2023/05/11 03:56:03;;;;;;;40.10;16.67;;;;;;;10.72;100.00;101481.78;10339249;28;20037;-74
2023/05/11 04:01:05;;;;;;;49.80;18.98;;;;;;;10.77;100.00;101484.63;10394489;28;20057;-74
2023/05/11 04:06:05;;;;;;;38.90;17.92;;;;;;;10.75;100.00;101487.66;10395084;28;20049;-74
2023/05/11 04:11:06;;;;;;;39.75;15.60;;;;;;;10.78;100.00;101487.16;10395049;28;20053;-75
2023/05/11 04:16:06;;;;;;;37.22;16.73;;;;;;;10.78;100.00;101492.66;10377201;28;20037;-75
2023/05/11 04:21:07;;;;;;;39.47;18.20;;;;;;;10.80;100.00;101485.00;10355412;28;20112;-74
2023/05/11 04:26:08;;;;;;;36.30;16.40;;;;;;;10.77;100.00;101491.00;10365311;28;20036;-74
2023/05/11 04:31:09;;;;;;;32.50;14.55;;;;;;;10.79;100.00;101487.97;10337755;28;20057;-74
2023/05/11 04:36:09;;;;;;;43.75;16.25;;;;;;;10.84;100.00;101508.22;10337793;28;20054;-74
2023/05/11 04:41:10;;;;;;;33.58;15.20;;;;;;;10.83;100.00;101500.19;10354209;28;20049;-74
2023/05/11 04:46:10;;;;;;;36.05;14.75;;;;;;;10.82;100.00;101512.31;10338604;28;20034;-73
2023/05/11 04:51:11;;;;;;;36.28;15.43;;;;;;;10.84;100.00;101488.09;10333649;28;20226;-74
2023/05/11 04:56:11;;;;;;;34.85;14.82;;;;;;;10.97;100.00;101503.53;10377259;28;20033;-75
2023/05/11 05:01:12;;;;;;;29.92;14.02;;;;;;;10.93;100.00;101505.94;10408236;28;20030;-74
2023/05/11 05:06:12;;;;;;;38.78;16.23;;;;;;;10.93;100.00;101511.44;10360845;28;20034;-74
2023/05/11 05:11:13;;;;;;;34.22;16.30;;;;;;;10.89;100.00;101493.72;10394525;28;20061;-74
2023/05/11 05:16:13;;;;;;;29.40;14.77;;;;;;;11.05;100.00;101516.94;10362064;28;20034;-75
2023/05/11 05:21:14;;;;;;;39.75;17.42;;;;;;;11.09;100.00;101516.22;10393787;28;20173;-74
2023/05/11 05:26:14;;;;;;;38.13;18.38;;;;;;;11.06;100.00;101516.72;10335127;28;20041;-74
2023/05/11 05:31:15;;;;;;;43.38;20.40;;;;;;;11.17;100.00;101516.94;10336433;28;20058;-70
2023/05/11 05:36:15;;;;;;;37.90;16.88;;;;;;;11.19;100.00;101525.81;10352590;28;20097;-73
2023/05/11 05:41:16;;;;;;;39.75;18.30;;;;;;;11.25;100.00;101530.34;10353098;28;20045;-74
2023/05/11 05:46:17;;;;;;;35.90;16.85;;;;;;;11.25;100.00;101530.34;10370440;28;20095;-74
2023/05/11 05:51:17;;;;;;;35.38;17.38;;;;;;;11.19;100.00;101531.31;10392323;28;20048;-73
2023/05/11 05:56:18;;;;;;;38.55;17.40;;;;;;;11.24;100.00;101545.19;10416538;28;20122;-76
2023/05/11 06:01:18;;;;;;;34.65;15.82;;;;;;;11.34;100.00;101550.94;10418235;28;20041;-73
2023/05/11 06:06:19;;;;;;;32.00;15.40;;;;;;;11.18;100.00;101559.94;10418325;28;20037;-73
2023/05/11 06:11:20;;;;;;;35.15;16.42;;;;;;;11.19;100.00;101558.88;10401057;28;20045;-73
2023/05/11 06:16:21;;;;;;;35.47;16.15;;;;;;;11.32;100.00;101555.84;10416648;28;20179;-76
2023/05/11 06:21:21;;;;;;;34.70;15.57;;;;;;;11.39;100.00;101564.84;10358857;28;20053;-73
2023/05/11 06:26:23;;;;;;;33.17;15.25;;;;;;;11.49;100.00;101564.19;10335547;28;20512;-73
2023/05/11 06:31:24;;;;;;;33.28;15.27;;;;;;;11.57;100.00;101560.22;10358749;28;20173;-73
2023/05/11 06:36:24;;;;;;;31.17;14.65;;;;;;;11.63;100.00;101570.28;10358275;28;20049;-74
2023/05/11 06:41:25;;;;;;;25.60;14.10;;;;;;;11.84;100.00;101568.75;10326902;28;20049;-74
2023/05/11 06:46:26;;;;;;;23.33;12.07;;;;;;;11.96;100.00;101554.97;10376180;28;20049;-74
2023/05/11 06:51:26;;;;;;;18.30;11.48;;;;;;;12.24;100.00;101568.72;10384032;28;20087;-74
2023/05/11 06:56:27;;;;;;;19.83;11.73;;;;;;;12.39;100.00;101561.81;10364739;28;20042;-74
2023/05/11 07:01:28;;;;;;;17.90;10.88;;;;;;;12.34;100.00;101572.75;10402721;28;20071;-74
2023/05/11 07:06:28;;;;;;;18.17;10.27;;;;;;;12.47;100.00;101569.69;10362162;28;20069;-73
2023/05/11 07:11:29;;;;;;;17.45;11.57;;;;;;;12.68;100.00;101566.16;10317284;28;20041;-74
2023/05/11 07:16:30;;;;;;;16.13;10.15;;;;;;;12.87;100.00;101565.91;10357028;28;20061;-75
2023/05/11 07:21:31;;;;;;;15.93;9.90;;;;;;;13.12;100.00;101560.78;10373676;28;20056;-74
2023/05/11 07:26:32;;;;;;;15.27;9.80;;;;;;;13.28;100.00;101567.31;10376126;28;20037;-75
2023/05/11 07:31:33;;;;;;;14.00;9.45;;;;;;;13.47;100.00;101573.41;10360354;28;20037;-75
2023/05/11 07:36:33;;;;;;;13.88;8.73;;;;;;;13.56;100.00;101575.72;10393066;28;20171;-75
2023/05/11 07:41:34;;;;;;;15.70;10.75;;;;;;;13.78;100.00;101572.97;10394547;28;20044;-74
2023/05/11 07:46:34;;;;;;;14.88;10.05;;;;;;;13.75;100.00;101574.31;10395154;28;20026;-74
2023/05/11 07:51:35;;;;;;;13.13;9.10;;;;;;;13.62;100.00;101564.50;10394220;28;21479;-75
2023/05/11 07:56:35;;;;;;;12.52;8.48;;;;;;;13.79;100.00;101575.47;10362090;28;20046;-69
2023/05/11 08:01:36;;;;;;;14.00;8.75;;;;;;;14.10;100.00;101578.59;10366719;28;20049;-75
2023/05/11 08:06:37;;;;;;;13.50;9.10;;;;;;;14.40;100.00;101585.53;10385574;28;20445;-74
2023/05/11 08:11:37;;;;;;;13.77;9.02;;;;;;;14.53;100.00;101569.31;10395482;28;20041;-74
2023/05/11 08:16:38;;;;;;;14.43;10.38;;;;;;;14.67;100.00;101586.34;10377129;28;20053;-75
2023/05/11 08:21:39;;;;;;;14.25;9.50;;;;;;;14.90;100.00;101581.53;10394370;28;20041;-74
2023/05/11 08:26:39;;;;;;;12.82;8.88;;;;;;;15.03;100.00;101583.03;10393827;28;20037;-74
2023/05/11 08:31:40;;;;;;;11.02;7.43;;;;;;;14.99;100.00;101584.66;10364478;28;20037;-73
2023/05/11 08:36:40;;;;;;;8.45;6.00;;;;;;;14.97;100.00;101584.94;10397697;28;20040;-74
2023/05/11 08:41:42;;;;;;;7.57;6.20;;;;;;;15.16;100.00;101588.09;10377289;28;20536;-75
2023/05/11 08:46:44;;;;;;;10.38;7.43;;;;;;;15.02;100.00;101587.72;10382465;28;20148;-74
2023/05/11 08:51:45;;;;;;;8.60;6.15;;;;;;;14.75;100.00;101578.66;10344898;28;20104;-74
2023/05/11 08:56:46;;;;;;;9.27;6.47;;;;;;;14.69;100.00;101589.69;10375132;28;20045;-72
2023/05/11 09:01:46;;;;;;;10.13;6.47;;;;;;;14.76;100.00;101595.03;10394882;28;20049;-73
2023/05/11 09:06:47;;;;;;;11.95;6.88;;;;;;;14.81;100.00;101572.06;10392938;28;20130;-73
2023/05/11 09:11:48;;;;;;;12.27;7.35;;;;;;;15.05;100.00;101598.28;10391635;28;20489;-74
2023/05/11 09:16:48;;;;;;;7.82;5.57;;;;;;;15.20;100.00;101593.94;10360107;28;20045;-74
2023/05/11 09:21:51;;;;;;;8.93;5.85;;;;;;;15.17;100.00;101594.47;10387574;28;20050;-72
2023/05/11 09:27:05;;;;;;;8.82;6.32;;;;;;;15.14;100.00;101599.44;10396705;28;20096;-74
2023/05/11 09:32:06;;;;;;;8.73;6.18;;;;;;;15.10;100.00;101592.75;10383260;28;20096;-73
2023/05/11 09:37:07;;;;;;;9.48;5.25;;;;;;;15.42;100.00;101594.63;10417687;28;20092;-74
2023/05/11 09:42:14;;;;;;;8.23;6.10;;;;;;;16.14;100.00;101581.88;10397498;28;20048;-74
2023/05/11 09:47:19;;;;;;;8.90;5.38;;;;;;;16.57;100.00;101567.75;10414006;28;20036;-77
2023/05/11 09:52:19;;;;;;;7.75;5.57;;;;;;;17.43;100.00;101579.88;10399956;28;20060;-74
2023/05/11 09:57:28;;;;;;;7.30;5.15;;;;;;;17.90;100.00;101573.03;10383481;28;20091;-74
2023/05/11 10:02:30;;;;;;;8.00;5.63;;;;;;;17.96;100.00;101576.59;10363343;28;20434;-74
2023/05/11 10:07:33;;;;;;;7.15;5.40;;;;;;;17.85;100.00;101564.69;10336783;28;20072;-74
2023/05/11 10:12:37;;;;;;;7.03;5.50;;;;;;;17.53;100.00;101574.28;10379014;28;20041;-75
2023/05/11 10:17:37;;;;;;;7.38;4.90;;;;;;;17.46;100.00;101568.16;10398421;28;20038;-74
2023/05/11 10:22:38;;;;;;;8.77;4.95;;;;;;;17.54;100.00;101569.53;10371256;28;20045;-75
2023/05/11 10:27:38;;;;;;;6.85;4.63;;;;;;;17.98;100.00;101566.00;10380343;28;20044;-75
2023/05/11 10:32:39;;;;;;;6.80;4.22;;;;;;;18.32;100.00;101557.72;10399300;28;20068;-72
2023/05/11 10:37:41;;;;;;;6.18;4.55;;;;;;;18.38;100.00;101560.47;10395904;28;20045;-74
2023/05/11 10:43:06;;;;;;;6.57;4.78;;;;;;;18.15;100.00;101551.72;10382253;28;20036;-75
2023/05/11 10:48:28;;;;;;;5.20;3.50;;;;;;;17.85;100.00;101563.88;10398914;28;20030;-76
2023/05/11 10:53:56;;;;;;;4.80;3.55;;;;;;;17.89;100.00;101560.22;10416899;28;20045;-73
2023/05/11 10:59:15;;;;;;;6.03;4.13;;;;;;;17.82;100.00;101575.53;10414031;28;20486;-73
2023/05/11 11:04:16;;;;;;;4.07;2.95;;;;;;;18.40;100.00;101569.34;10415877;28;20502;-73
2023/05/11 11:09:16;;;;;;;3.33;2.08;;;;;;;18.75;100.00;101559.88;10413904;28;20042;-73
2023/05/11 11:14:18;;;;;;;3.05;2.00;;;;;;;19.00;100.00;101547.66;10396894;28;20115;-73
2023/05/11 11:19:27;;;;;;;4.32;1.88;;;;;;;19.41;100.00;101549.16;10414043;28;20053;-73
2023/05/11 11:24:39;;;;;;;3.50;2.35;;;;;;;19.27;100.00;101549.06;10415468;28;20029;-72
2023/05/11 11:29:40;;;;;;;2.50;2.03;;;;;;;18.87;100.00;101556.72;10373417;28;20046;-73
2023/05/11 11:34:40;;;;;;;2.15;1.73;;;;;;;18.62;100.00;101560.53;10323280;28;20065;-73
2023/05/11 11:39:41;;;;;;;2.53;1.73;;;;;;;18.65;100.00;101565.56;10369533;28;20041;-73
2023/05/11 11:44:43;;;;;;;2.72;1.65;;;;;;;18.82;100.00;101559.56;10353011;28;20068;-73
2023/05/11 11:49:45;;;;;;;2.30;1.80;;;;;;;18.76;100.00;101556.78;10371020;28;20040;-72
2023/05/11 11:54:46;;;;;;;3.22;1.42;;;;;;;18.76;100.00;101559.56;10355584;28;20072;-73
2023/05/11 11:59:46;;;;;;;4.53;1.65;;;;;;;18.86;100.00;101533.56;10339661;28;20092;-73
2023/05/11 12:04:56;;;;;;;2.58;1.40;;;;;;;18.70;100.00;101552.38;10354965;28;20037;-73
2023/05/11 12:09:57;;;;;;;2.80;1.58;;;;;;;18.60;100.00;101555.25;10371227;28;20042;-73
2023/05/11 12:14:58;;;;;;;1.92;1.15;;;;;;;18.87;100.00;101545.56;10337246;28;20045;-73
2023/05/11 12:20:16;;;;;;;2.13;1.33;;;;;;;19.64;100.00;101544.69;10338731;28;20048;-74
2023/05/11 12:25:17;;;;;;;2.13;1.25;;;;;;;19.65;100.00;101532.38;10377708;28;20041;-73
2023/05/11 12:30:24;;;;;;;2.17;1.33;;;;;;;19.62;100.00;101528.22;10379703;28;20041;-73
2023/05/11 12:35:26;;;;;;;7.45;2.58;;;;;;;19.67;100.00;101530.94;10396464;28;20045;-74
2023/05/11 12:40:27;;;;;;;5.50;2.55;;;;;;;19.75;100.00;101518.31;10362936;28;20093;-74
2023/05/11 12:45:28;;;;;;;5.00;2.85;;;;;;;20.02;100.00;101530.78;10411333;28;20036;-73
2023/05/11 12:50:28;;;;;;;5.15;3.47;;;;;;;19.63;100.00;101517.88;10393684;28;20038;-73
2023/05/11 12:55:29;;;;;;;4.65;2.85;;;;;;;19.47;100.00;101536.78;10393198;28;20497;-73
2023/05/11 13:00:29;;;;;;;4.88;2.50;;;;;;;19.35;100.00;101542.81;10398184;28;20617;-74
2023/05/11 13:05:30;;;;;;;5.18;2.42;;;;;;;18.83;100.00;101544.47;10424298;28;20033;-73
2023/05/11 13:10:30;;;;;;;3.17;2.10;;;;;;;18.65;100.00;101534.88;10407072;28;20084;-73
2023/05/11 13:15:31;;;;;;;2.72;1.88;;;;;;;18.63;100.00;101535.16;10408784;28;20057;-74
2023/05/11 13:20:32;;;;;;;2.47;1.48;;;;;;;18.86;100.00;101529.97;10392045;28;20037;-75
2023/05/11 13:25:34;;;;;;;2.47;1.55;;;;;;;18.75;100.00;101549.56;10375123;28;20038;-74
2023/05/11 13:30:34;;;;;;;3.35;1.52;;;;;;;19.23;100.00;101531.25;10406646;28;20102;-75
2023/05/11 13:35:41;;;;;;;3.83;1.60;;;;;;;19.31;100.00;101499.88;10405029;28;20072;-74
2023/05/11 13:40:41;;;;;;;2.58;1.40;;;;;;;19.34;100.00;101511.25;10387262;28;20053;-74
2023/05/11 13:45:42;;;;;;;2.40;1.77;;;;;;;19.51;100.00;101515.50;10406571;28;20045;-74
2023/05/11 13:50:42;;;;;;;6.00;2.05;;;;;;;19.84;100.00;101524.03;10404956;28;20079;-75
2023/05/11 13:55:43;;;;;;;3.90;2.40;;;;;;;20.02;100.00;101503.66;10405778;28;20041;-74
2023/05/11 14:00:43;;;;;;;3.50;2.30;;;;;;;20.02;100.00;101505.63;10406438;28;20026;-73
2023/05/11 14:05:46;;;;;;;5.13;3.03;;;;;;;19.15;100.00;101511.22;10388999;28;20474;-72
2023/05/11 14:10:47;;;;;;;4.72;3.05;;;;;;;19.34;100.00;101529.97;10405956;28;20512;-73
2023/05/11 14:15:48;;;;;;;4.25;3.85;;;;;;;19.60;100.00;101529.66;10416660;28;20033;-72
2023/05/11 14:20:48;;;;;;;7.47;4.40;;;;;;;19.07;100.00;101523.03;10417857;28;20215;-73
2023/05/11 14:25:49;;;;;;;5.93;4.95;;;;;;;18.92;100.00;101528.78;10400374;28;20150;-73
2023/05/11 14:30:49;;;;;;;4.63;3.47;;;;;;;18.71;100.00;101514.19;10381284;28;20072;-74
2023/05/11 14:35:51;;;;;;;4.72;3.42;;;;;;;18.69;100.00;101522.00;10381459;28;20045;-73
2023/05/11 14:40:51;;;;;;;4.03;3.38;;;;;;;18.32;100.00;101524.25;10415695;28;20120;-74
2023/05/11 14:45:52;;;;;;;3.08;2.22;;;;;;;18.00;100.00;101523.94;10399068;28;20417;-74
2023/05/11 14:50:53;;;;;;;4.93;2.15;;;;;;;17.85;100.00;101533.22;10365551;28;20034;-74
2023/05/11 14:55:54;;;;;;;3.33;2.53;;;;;;;17.71;100.00;101539.41;10398894;28;20038;-74
2023/05/11 15:00:54;;;;;;;3.00;2.30;;;;;;;17.52;100.00;101533.63;10364009;28;20037;-74
2023/05/11 15:05:55;;;;;;;3.08;1.83;;;;;;;17.85;100.00;101539.63;10395631;28;20073;-74
2023/05/11 15:10:55;;;;;;;3.03;1.92;;;;;;;17.82;100.00;101537.41;10394580;28;20049;-73
2023/05/11 15:15:56;;;;;;;6.05;3.58;;;;;;;17.65;100.00;101536.91;10398078;28;20048;-73
2023/05/11 15:20:57;;;;;;;4.47;3.20;;;;;;;17.32;100.00;101555.97;10415019;28;20429;-72
2023/05/11 15:25:58;;;;;;;5.65;3.00;;;;;;;16.82;100.00;101552.19;10348011;28;20029;-73
2023/05/11 15:30:58;;;;;;;4.28;2.80;;;;;;;16.71;100.00;101562.47;10380972;28;20084;-74
2023/05/11 15:35:59;;;;;;;4.28;3.08;;;;;;;16.43;100.00;101555.50;10363235;28;20071;-73
2023/05/11 15:41:00;;;;;;;4.97;3.35;;;;;;;16.48;100.00;101566.66;10354881;28;20046;-73
2023/05/11 15:46:02;;;;;;;3.65;2.60;;;;;;;16.40;100.00;101569.97;10372297;28;20044;-71
2023/05/11 15:51:02;;;;;;;5.88;3.83;;;;;;;16.44;100.00;101573.88;10372236;28;20061;-73
2023/05/11 15:56:03;;;;;;;6.00;3.78;;;;;;;16.48;100.00;101583.31;10355786;28;20050;-68
2023/05/11 16:01:03;;;;;;;7.38;3.95;;;;;;;16.02;100.00;101570.19;10373271;28;20045;-76
2023/05/11 16:06:04;;;;;;;6.10;3.83;;;;;;;15.85;100.00;101577.91;10356401;28;20034;-72
2023/05/11 16:11:05;;;;;;;7.30;4.80;;;;;;;15.69;100.00;101577.81;10392267;28;20441;-72
2023/05/11 16:16:05;;;;;;;6.75;4.28;;;;;;;15.69;100.00;101582.56;10377034;28;20072;-72
2023/05/11 16:21:07;;;;;;;7.90;5.63;;;;;;;15.39;100.00;101581.28;10378606;28;20033;-73
2023/05/11 16:26:07;;;;;;;9.55;5.40;;;;;;;15.36;100.00;101570.75;10394478;28;20467;-73
2023/05/11 16:31:08;;;;;;;8.02;5.50;;;;;;;15.39;100.00;101580.47;10393964;28;20049;-71
2023/05/11 16:36:09;;;;;;;8.02;5.85;;;;;;;15.19;100.00;101592.25;10392836;28;20033;-73
2023/05/11 16:41:10;;;;;;;7.85;5.43;;;;;;;14.97;100.00;101593.25;10391132;28;20038;-72
2023/05/11 16:46:11;;;;;;;9.27;6.22;;;;;;;14.85;100.00;101587.88;10411765;28;20045;-74
2023/05/11 16:51:11;;;;;;;7.82;5.35;;;;;;;14.76;100.00;101600.56;10393872;28;20034;-73
2023/05/11 16:56:12;;;;;;;8.95;6.28;;;;;;;14.61;100.00;101606.78;10411341;28;20045;-73
2023/05/11 17:01:12;;;;;;;11.63;6.75;;;;;;;14.56;100.00;101601.22;10393827;28;20033;-70
2023/05/11 17:06:16;;;;;;;12.63;7.25;;;;;;;14.30;100.00;101600.97;10393692;28;20045;-72
2023/05/11 17:11:16;;;;;;;9.68;6.38;;;;;;;13.99;100.00;101585.09;10378571;28;20033;-74
2023/05/11 17:16:17;;;;;;;9.63;6.60;;;;;;;13.86;100.00;101609.31;10411500;28;20042;-74
2023/05/11 17:21:17;;;;;;;11.98;6.97;;;;;;;13.80;100.00;101615.88;10393251;28;20033;-73
2023/05/11 17:26:18;;;;;;;10.23;7.75;;;;;;;13.58;100.00;101613.13;10392587;28;20065;-73
2023/05/11 17:31:18;;;;;;;9.07;6.43;;;;;;;13.55;100.00;101616.41;10376543;28;20038;-73
2023/05/11 17:36:20;;;;;;;10.52;6.57;;;;;;;13.37;100.00;101617.53;10392769;28;20044;-73
2023/05/11 17:41:20;;;;;;;11.27;7.50;;;;;;;13.32;100.00;101634.06;10380862;28;20493;-73
2023/05/11 17:46:21;;;;;;;11.60;7.57;;;;;;;13.30;100.00;101639.00;10378316;28;21461;-74
2023/05/11 17:51:21;;;;;;;12.80;8.43;;;;;;;13.20;100.00;101644.34;10366807;28;20037;-70
2023/05/11 17:56:22;;;;;;;15.90;9.10;;;;;;;12.99;100.00;101644.03;10399942;28;20979;-73
2023/05/11 18:01:22;;;;;;;13.20;8.02;;;;;;;12.87;100.00;101657.94;10382851;28;20038;-73
2023/05/11 18:06:23;;;;;;;14.20;8.85;;;;;;;12.74;100.00;101662.97;10400091;28;20037;-74
2023/05/11 18:11:24;;;;;;;13.95;8.77;;;;;;;12.56;100.00;101656.56;10399933;28;20033;-74
2023/05/11 18:16:25;;;;;;;16.98;9.35;;;;;;;12.62;100.00;101672.13;10358831;28;20041;-73
2023/05/11 18:21:26;;;;;;;15.15;9.65;;;;;;;12.46;100.00;101679.31;10416688;28;20064;-73
2023/05/11 18:26:27;;;;;;;14.40;8.85;;;;;;;12.35;100.00;101680.19;10413226;28;20044;-72
2023/05/11 18:31:30;;;;;;;22.02;10.07;;;;;;;12.29;100.00;101682.00;10397514;28;20045;-71
2023/05/11 18:36:31;;;;;;;18.20;9.88;;;;;;;12.32;100.00;101678.78;10398898;28;20030;-72
2023/05/11 18:41:31;;;;;;;12.98;8.45;;;;;;;12.24;100.00;101676.41;10415749;28;20038;-72
2023/05/11 18:46:32;;;;;;;14.52;9.05;;;;;;;12.23;100.00;101680.22;10413078;28;20093;-72
2023/05/11 18:51:32;;;;;;;12.95;7.38;;;;;;;12.21;100.00;101682.41;10415764;28;20084;-72
2023/05/11 18:56:33;;;;;;;17.08;9.13;;;;;;;12.11;100.00;101687.72;10379146;28;20127;-73
2023/05/11 19:01:33;;;;;;;16.52;8.98;;;;;;;12.08;100.00;101693.75;10379379;28;20033;-73
2023/05/11 19:06:34;;;;;;;19.30;9.63;;;;;;;12.13;100.00;101695.75;10379092;28;20044;-74
2023/05/11 19:11:35;;;;;;;19.52;11.00;;;;;;;12.10;100.00;101706.22;10397093;28;20383;-75
2023/05/11 19:16:35;;;;;;;15.30;8.93;;;;;;;12.06;100.00;101706.94;10396592;28;20037;-74
2023/05/11 19:21:39;;;;;;;16.92;10.95;;;;;;;12.02;100.00;101714.88;10377366;28;20461;-74
2023/05/11 19:26:39;;;;;;;18.98;9.98;;;;;;;11.96;100.00;101707.56;10347257;28;20417;-74
2023/05/11 19:31:40;;;;;;;21.08;11.30;;;;;;;11.85;100.00;101700.13;10380140;28;20034;-72
2023/05/11 19:36:42;;;;;;;16.90;10.52;;;;;;;11.97;100.00;101724.94;10396656;28;20101;-72
2023/05/11 19:41:42;;;;;;;22.75;12.35;;;;;;;11.79;100.00;101714.88;10395920;28;20072;-72
2023/05/11 19:46:45;;;;;;;25.63;12.30;;;;;;;11.87;100.00;101737.41;10379733;28;20037;-70
2023/05/11 19:51:45;;;;;;;26.35;13.77;;;;;;;11.81;100.00;101724.59;10396164;28;20045;-74
2023/05/11 19:56:46;;;;;;;27.92;14.30;;;;;;;11.78;100.00;101736.13;10395348;28;20041;-71
2023/05/11 20:01:47;;;;;;;35.95;17.67;;;;;;;11.79;100.00;101740.56;10412576;28;20038;-73
2023/05/11 20:06:47;;;;;;;38.35;16.90;;;;;;;11.80;100.00;101741.38;10397189;28;20053;-74
2023/05/11 20:11:47;;;;;;;35.25;15.07;;;;;;;11.71;100.00;101751.94;10394673;28;20509;-71
2023/05/11 20:16:48;;;;;;;40.95;16.52;;;;;;;11.63;100.00;101736.59;10412738;28;20088;-72
2023/05/11 20:21:48;;;;;;;33.47;14.00;;;;;;;11.62;100.00;101734.09;10394941;28;20046;-70
2023/05/11 20:26:49;;;;;;;27.30;12.52;;;;;;;11.49;100.00;101724.97;10411486;28;20038;-71
2023/05/11 20:31:49;;;;;;;31.15;12.27;;;;;;;11.50;100.00;101726.66;10371352;28;20105;-70
2023/05/11 20:36:52;;;;;;;35.97;15.13;;;;;;;11.52;100.00;101729.16;10395652;28;20053;-72
2023/05/11 20:41:53;;;;;;;21.95;10.68;;;;;;;11.48;100.00;101725.22;10412580;28;20097;-70
2023/05/11 20:46:53;;;;;;;21.77;11.05;;;;;;;11.35;100.00;101709.75;10411647;28;20033;-69
2023/05/11 20:51:54;;;;;;;23.20;11.57;;;;;;;11.34;100.00;101710.00;10393685;28;20040;-72
2023/05/11 20:56:55;;;;;;;25.75;12.05;;;;;;;11.38;100.00;101725.81;10377233;28;20061;-70
2023/05/11 21:01:55;;;;;;;22.00;11.32;;;;;;;11.33;100.00;101728.44;10408762;28;20045;-68
2023/05/11 21:06:55;;;;;;;27.00;10.98;;;;;;;11.34;100.00;101719.09;10410605;28;20042;-69
2023/05/11 21:11:56;;;;;;;21.95;11.45;;;;;;;11.31;100.00;101727.84;10409148;28;20037;-68
2023/05/11 21:16:56;;;;;;;22.88;11.48;;;;;;;11.26;100.00;101735.97;10393411;28;20038;-70
2023/05/11 21:21:57;;;;;;;27.05;13.10;;;;;;;11.25;100.00;101731.56;10372444;28;20038;-70
2023/05/11 21:26:58;;;;;;;27.05;14.40;;;;;;;11.25;100.00;101739.81;10400878;28;20037;-70
2023/05/11 21:31:59;;;;;;;25.55;13.35;;;;;;;11.29;100.00;101752.06;10419815;28;20041;-70
2023/05/11 21:36:59;;;;;;;29.70;14.40;;;;;;;11.20;100.00;101747.97;10418792;28;20053;-70
2023/05/11 21:42:01;;;;;;;26.65;13.10;;;;;;;11.15;100.00;101745.09;10401016;28;20037;-70
2023/05/11 21:47:02;;;;;;;33.63;13.15;;;;;;;11.16;100.00;101755.84;10419715;28;20473;-70
2023/05/11 21:52:02;;;;;;;35.92;12.95;;;;;;;11.17;100.00;101731.91;10418362;28;20029;-73
2023/05/11 21:57:03;;;;;;;23.73;10.45;;;;;;;11.07;100.00;101727.81;10375818;28;20049;-72
2023/05/11 22:02:03;;;;;;;20.08;9.35;;;;;;;11.03;100.00;101737.63;10417091;28;20045;-72
2023/05/11 22:07:04;;;;;;;28.08;8.65;;;;;;;11.10;100.00;101735.63;10400269;28;20064;-72
2023/05/11 22:12:05;;;;;;;19.95;7.30;;;;;;;11.03;100.00;101734.88;10383416;28;20104;-72
2023/05/11 22:17:05;;;;;;;18.30;7.53;;;;;;;11.04;100.00;101735.72;10417506;28;20048;-72
2023/05/11 22:22:06;;;;;;;14.25;6.55;;;;;;;11.03;100.00;101734.88;10399345;28;20037;-73
2023/05/11 22:27:08;;;;;;;19.98;7.75;;;;;;;11.07;100.00;101741.56;10416849;28;20037;-72
2023/05/11 22:32:10;;;;;;;21.98;10.23;;;;;;;11.03;100.00;101726.59;10395924;28;20121;-72
2023/05/11 22:37:11;;;;;;;26.67;11.52;;;;;;;11.03;100.00;101732.09;10393095;28;20044;-72